createdAt,value
2023-05-03T00:00:21.074Z,18.50
2023-05-03T00:15:25.790Z,18.30
2023-05-03T00:30:30.302Z,17.90
2023-05-03T00:45:35.449Z,18.00
2023-05-03T01:00:39.943Z,17.90
2023-05-03T01:15:54.321Z,17.90
2023-05-03T01:31:00.177Z,17.80
2023-05-03T01:46:04.789Z,17.50
2023-05-03T02:01:09.352Z,17.60
2023-05-03T02:16:13.849Z,17.30
2023-05-03T02:31:18.433Z,17.20
2023-05-03T02:46:23.251Z,17.20
2023-05-03T03:01:29.721Z,16.90
2023-05-03T03:16:34.464Z,16.90
2023-05-03T03:31:39.015Z,16.80
2023-05-03T03:46:44.295Z,16.80
2023-05-03T04:01:49.129Z,16.60
2023-05-03T04:16:54.007Z,16.20
2023-05-03T04:31:58.698Z,16.10
2023-05-03T04:47:03.785Z,16.10
2023-05-03T05:02:08.686Z,16.00
2023-05-03T05:17:13.254Z,15.90
2023-05-03T05:32:19.401Z,16.00
2023-05-03T05:47:24.077Z,16.10
2023-05-03T06:02:31.142Z,16.00
2023-05-03T06:17:35.843Z,15.70
2023-05-03T06:32:42.816Z,15.80
2023-05-03T06:47:50.233Z,15.90
2023-05-03T07:02:55.056Z,16.10
2023-05-03T07:17:59.675Z,16.30
2023-05-03T07:33:04.476Z,16.20
2023-05-03T07:48:09.161Z,16.50
2023-05-03T08:03:13.858Z,16.80
2023-05-03T08:18:18.895Z,17.00
2023-05-03T08:33:23.902Z,17.10
2023-05-03T08:48:30.626Z,17.30
2023-05-03T09:03:36.372Z,17.40
2023-05-03T09:18:43.912Z,17.60
2023-05-03T09:33:48.466Z,17.80
2023-05-03T09:48:55.395Z,17.90
2023-05-03T10:04:02.393Z,18.00
2023-05-03T10:19:14.128Z,17.90
2023-05-03T10:34:25.015Z,18.30
2023-05-03T10:49:29.340Z,18.50
2023-05-03T11:04:42.794Z,18.80
2023-05-03T11:19:48.358Z,19.00
2023-05-03T11:34:52.825Z,19.30
2023-05-03T11:49:58.832Z,19.40
2023-05-03T12:21:02.902Z,20.00
2023-05-03T12:35:46.971Z,20.30
2023-05-03T12:50:52.296Z,20.60
2023-05-03T13:05:57.051Z,20.90
2023-05-03T13:21:02.348Z,21.30
2023-05-03T13:36:07.739Z,21.80
2023-05-03T13:51:13.541Z,23.50
2023-05-03T14:06:18.015Z,27.10
2023-05-03T14:21:22.570Z,30.30
2023-05-03T14:36:33.150Z,31.80
2023-05-03T14:51:37.573Z,33.00
2023-05-03T15:06:42.850Z,34.30
2023-05-03T15:21:48.415Z,34.60
2023-05-03T15:36:52.812Z,34.90
2023-05-03T15:51:57.165Z,35.00
2023-05-03T16:07:01.604Z,34.60
2023-05-03T16:22:06.643Z,33.10
2023-05-03T16:37:11.228Z,32.60
2023-05-03T16:52:16.168Z,31.80
2023-05-03T17:07:20.588Z,31.10
2023-05-03T17:22:25.026Z,30.30
2023-05-03T17:37:29.838Z,29.70
2023-05-03T17:52:34.363Z,29.10
2023-05-03T18:07:39.027Z,28.20
2023-05-03T18:22:43.524Z,27.30
2023-05-03T18:37:47.995Z,26.30
2023-05-03T18:52:52.593Z,25.50
2023-05-03T19:07:57.029Z,24.60
2023-05-03T19:23:01.613Z,24.00
2023-05-03T19:38:06.033Z,23.50
2023-05-03T19:53:10.706Z,23.30
2023-05-03T20:08:15.097Z,23.10
2023-05-03T20:23:19.582Z,22.90
2023-05-03T20:38:23.967Z,22.50
2023-05-03T20:53:29.882Z,22.40
2023-05-03T21:08:34.432Z,22.10
2023-05-03T21:23:38.974Z,22.00
2023-05-03T21:38:43.459Z,21.70
2023-05-03T21:53:48.313Z,21.60
2023-05-03T22:08:52.825Z,21.40
2023-05-03T22:23:57.326Z,21.20
2023-05-03T22:39:05.264Z,20.90
2023-05-03T22:54:09.702Z,20.90
2023-05-03T23:09:14.133Z,20.90
2023-05-03T23:24:18.811Z,20.50
2023-05-03T23:39:23.313Z,20.80
2023-05-03T23:54:28.078Z,20.70
